»·PEaware :: N147AT KBFL-KSBD

N147AT :: KBFL-KSBD

FLIGHT INFORMATION

Flight Status: Arrived
Operator: Privately registered:
United States
More flights under this callsign
Pilot: Anonymous 18613 (18613)
Aircraft: CESSNA 172 SKYHAWK
(C172)
More flights by this aircraft type
Origin: KBFL Meadows
United States
Destination: KSBD San Bernardino Intl
United States
More flights between these airports :: More routes between these airports
Route: +MEADO3 PMD V173 ARRAN
File this flight plan on PilotEdge
Remarks:
Altitude:
(Current/Filed)
8,000ft
Speed:
(Current/Filed)
115kts
Departed: 14-Sep-18 12:35 PM
Arrived: 14-Sep-18 02:17 PM
Distance/Time
Traveled:
120nm/1:42
Distance/Time
To Go:
Arrived

Flight Plot

Page will automatically refresh every two minutes.

Flight plan parsing failed; only flown route is shown


Map Options




Map Legend


Flown Route
Filed Route
Departure Airport
Arrival Airport
Navaid (VOR, NDB)
Fix

Horizontal Profiles

Position Reports

Time Latitude Longitude Heading Altitude Ground
Speed
14-Sep-18 12:22 35.429367 -119.046106 225 510ft 0kts
14-Sep-18 12:23 35.429367 -119.046106 225 510ft 0kts
14-Sep-18 12:24 35.429367 -119.046106 225 510ft 0kts
14-Sep-18 12:25 35.429367 -119.046106 225 510ft 0kts
14-Sep-18 12:26 35.429367 -119.046106 225 510ft 0kts
14-Sep-18 12:27 35.429367 -119.046106 225 510ft 0kts
14-Sep-18 12:28 35.429367 -119.046106 225 510ft 0kts
14-Sep-18 12:29 35.429367 -119.046106 225 510ft 0kts
14-Sep-18 12:30 35.429345 -119.046132 222 510ft 2kts
14-Sep-18 12:31 35.428890 -119.046689 224 510ft 0kts
14-Sep-18 12:32 35.428890 -119.046689 224 510ft 0kts
14-Sep-18 12:33 35.427673 -119.046507 137 510ft 17kts
14-Sep-18 12:34 35.426001 -119.044613 174 510ft 0kts
14-Sep-18 12:35 35.425736 -119.044740 237 510ft 0kts
14-Sep-18 12:36 35.425329 -119.045897 317 510ft 0kts
14-Sep-18 12:37 35.428171 -119.049346 315 510ft 74kts
14-Sep-18 12:38 35.444645 -119.068563 319 1377ft 83kts
14-Sep-18 12:39 35.447380 -119.086468 152 1871ft 78kts
14-Sep-18 12:40 35.428259 -119.070792 157 1575ft 84kts
14-Sep-18 12:41 35.409082 -119.059662 142 1638ft 78kts
14-Sep-18 12:42 35.390527 -119.047213 167 1726ft 77kts
14-Sep-18 12:43 35.370129 -119.041198 157 2181ft 75kts
14-Sep-18 12:44 35.349701 -119.034038 159 2675ft 77kts
14-Sep-18 12:45 35.328733 -119.026400 157 3071ft 90kts
14-Sep-18 12:46 35.301355 -119.016880 167 3065ft 110kts
14-Sep-18 13:11 35.354108 -119.045205 119 6992ft 93kts
14-Sep-18 13:12 35.339557 -119.018088 124 7493ft 96kts
14-Sep-18 13:13 35.323455 -118.992014 127 7990ft 96kts
14-Sep-18 13:14 35.306009 -118.967505 136 8486ft 95kts
14-Sep-18 13:15 35.287252 -118.945026 133 8983ft 93kts
14-Sep-18 13:16 35.266112 -118.918196 133 9027ft 119kts
14-Sep-18 13:17 35.243536 -118.888608 132 9027ft 120kts
14-Sep-18 13:18 35.221025 -118.858424 131 9026ft 120kts
14-Sep-18 13:19 35.198698 -118.828161 131 9026ft 120kts
14-Sep-18 13:20 35.176353 -118.797731 131 9025ft 120kts
14-Sep-18 13:21 35.154130 -118.767397 131 9024ft 120kts
14-Sep-18 13:22 35.131874 -118.737012 131 9024ft 120kts
14-Sep-18 13:23 35.109655 -118.706688 131 9023ft 120kts
14-Sep-18 13:24 35.087202 -118.676074 131 8997ft 120kts
14-Sep-18 13:25 35.064964 -118.645768 131 8996ft 120kts
14-Sep-18 13:26 35.042692 -118.615441 131 8996ft 120kts
14-Sep-18 13:27 35.020409 -118.585125 131 8995ft 120kts
14-Sep-18 13:28 34.998177 -118.554906 131 8995ft 120kts
14-Sep-18 13:29 34.975917 -118.524678 131 8994ft 120kts
14-Sep-18 13:30 34.953619 -118.494425 131 8993ft 120kts
14-Sep-18 13:31 34.931358 -118.464248 131 8993ft 120kts
14-Sep-18 13:32 34.909089 -118.434088 131 8992ft 120kts
14-Sep-18 13:33 34.887242 -118.404698 131 8992ft 120kts
14-Sep-18 13:34 34.864863 -118.374627 131 8991ft 120kts
14-Sep-18 13:35 34.843449 -118.345763 131 8991ft 120kts
14-Sep-18 13:36 34.821157 -118.315547 131 8990ft 120kts
14-Sep-18 13:37 34.798674 -118.285641 133 8989ft 120kts
14-Sep-18 13:38 34.775791 -118.256068 132 8989ft 120kts
14-Sep-18 13:39 34.753236 -118.226292 132 8988ft 120kts
14-Sep-18 13:40 34.730740 -118.196309 132 8988ft 120kts
14-Sep-18 13:41 34.708374 -118.166375 131 8987ft 120kts
14-Sep-18 13:42 34.685958 -118.136331 131 8987ft 120kts
14-Sep-18 13:43 34.663585 -118.106339 131 8986ft 120kts
14-Sep-18 13:44 34.641146 -118.076274 131 8985ft 120kts
14-Sep-18 13:45 34.622177 -118.043361 118 8986ft 120kts
14-Sep-18 13:46 34.605744 -118.008029 119 8985ft 120kts
14-Sep-18 13:47 34.589457 -117.972605 118 8984ft 120kts
14-Sep-18 13:48 34.573160 -117.937265 118 8984ft 120kts
14-Sep-18 13:49 34.556891 -117.901887 119 8983ft 120kts
14-Sep-18 13:50 34.540564 -117.866548 119 8983ft 120kts
14-Sep-18 13:51 34.524278 -117.831298 119 8982ft 120kts
14-Sep-18 13:52 34.510247 -117.794690 107 8983ft 120kts
14-Sep-18 13:53 34.500259 -117.755957 106 8982ft 120kts
14-Sep-18 13:54 34.490287 -117.717341 106 8982ft 120kts
14-Sep-18 13:55 34.479664 -117.678865 117 8979ft 120kts
14-Sep-18 13:56 34.463677 -117.643398 127 8977ft 120kts
14-Sep-18 13:57 34.442815 -117.611673 128 8976ft 120kts
14-Sep-18 13:58 34.422018 -117.580121 128 8976ft 120kts
14-Sep-18 13:59 34.401098 -117.548431 128 8975ft 120kts
14-Sep-18 14:00 34.380157 -117.516757 128 8975ft 120kts
14-Sep-18 14:01 34.359253 -117.485186 128 8974ft 120kts
14-Sep-18 14:02 34.338307 -117.453602 128 8973ft 120kts
14-Sep-18 14:03 34.317379 -117.422092 128 8973ft 120kts
14-Sep-18 14:04 34.288250 -117.408313 194 8571ft 139kts
14-Sep-18 14:05 34.250134 -117.421007 194 7945ft 138kts
14-Sep-18 14:06 34.216923 -117.432102 194 8103ft 115kts
14-Sep-18 14:07 34.185292 -117.442674 194 8105ft 119kts
14-Sep-18 14:08 34.153052 -117.453485 194 8104ft 120kts
14-Sep-18 14:09 34.119270 -117.464873 195 7385ft 136kts
14-Sep-18 14:10 34.082875 -117.477248 195 5880ft 136kts
14-Sep-18 14:11 34.046817 -117.489539 195 4383ft 135kts
14-Sep-18 14:12 34.022187 -117.475859 95 4096ft 125kts
14-Sep-18 14:13 34.030545 -117.435287 53 4100ft 128kts
14-Sep-18 14:14 34.047158 -117.397345 75 3709ft 127kts
14-Sep-18 14:15 34.059076 -117.359134 69 3060ft 119kts
14-Sep-18 14:16 34.069113 -117.323569 70 2450ft 113kts
14-Sep-18 14:17 34.079629 -117.288001 70 1838ft 106kts
14-Sep-18 14:18 34.088848 -117.256866 70 1313ft 100kts
14-Sep-18 14:19 34.095009 -117.236412 51 1161ft 26kts
14-Sep-18 14:20 34.096195 -117.236443 347 1161ft 0kts
14-Sep-18 14:21 34.096195 -117.236443 347 1161ft 0kts
14-Sep-18 14:22 34.097903 -117.232288 70 1161ft 25kts

Navigation Log

Ident Type
Flight plan parsing failed, navigation log unavailable